Time;durP1;ratioP1;P1;durP2;ratioP2;P2;SDS_P1;SDS_P2;PMS_P1;PMS_P2;Temp;Humidity;BMP_temperature;BMP_pressure;BME280_temperature;BME280_humidity;BME280_pressure;Samples;Min_cycle;Max_cycle;Signal;HPM_P1;HPM_P2
2023/02/26 00:01:11;;;;;;;4.80;1.10;;;0.20;99.90;;;;;;4841508;29;20494;-60
2023/02/26 00:03:40;;;;;;;6.73;1.40;;;0.20;99.90;;;;;;4841816;29;20476;-60
2023/02/26 00:06:08;;;;;;;5.57;1.50;;;0.20;99.90;;;;;;4842083;29;20481;-59
2023/02/26 00:08:36;;;;;;;3.30;1.50;;;0.20;99.90;;;;;;4841504;29;20561;-59
2023/02/26 00:11:07;;;;;;;3.47;1.27;;;0.30;99.90;;;;;;4841625;29;20544;-60
2023/02/26 00:13:36;;;;;;;2.03;1.40;;;0.30;99.90;;;;;;4841335;29;21024;-60
2023/02/26 00:16:14;;;;;;;3.00;1.40;;;0.30;99.90;;;;;;4841721;29;20479;-60
2023/02/26 00:18:42;;;;;;;2.20;1.50;;;0.30;99.90;;;;;;4841745;29;20511;-59
2023/02/26 00:21:16;;;;;;;3.70;1.40;;;0.30;99.90;;;;;;4841586;29;20480;-60
2023/02/26 00:23:45;;;;;;;6.20;1.80;;;0.20;99.90;;;;;;4848918;29;21029;-60
2023/02/26 00:26:13;;;;;;;4.17;1.27;;;0.20;99.90;;;;;;4846991;29;20973;-59
2023/02/26 00:28:42;;;;;;;2.57;1.20;;;0.00;99.90;;;;;;4841407;29;20464;-59
2023/02/26 00:31:14;;;;;;;4.90;1.40;;;0.00;99.90;;;;;;4841340;29;20841;-60
2023/02/26 00:33:44;;;;;;;1.43;1.00;;;0.00;99.90;;;;;;4841618;29;20825;-59
2023/02/26 00:36:21;;;;;;;4.93;1.30;;;-0.10;99.90;;;;;;4842993;29;20468;-60
2023/02/26 00:39:02;;;;;;;3.37;1.20;;;-0.10;99.90;;;;;;4844677;29;20523;-60
2023/02/26 00:41:31;;;;;;;3.43;1.37;;;-0.10;99.90;;;;;;4843389;29;20814;-60
2023/02/26 00:43:59;;;;;;;6.67;1.10;;;-0.10;99.90;;;;;;4844868;29;20475;-60
2023/02/26 00:46:38;;;;;;;3.90;1.00;;;-0.10;99.90;;;;;;4844605;29;20468;-60
2023/02/26 00:49:17;;;;;;;2.53;1.10;;;-0.10;99.90;;;;;;4843543;29;20488;-60
2023/02/26 00:51:49;;;;;;;2.00;1.00;;;-0.10;99.90;;;;;;4844449;29;20526;-59
2023/02/26 00:54:20;;;;;;;3.40;1.20;;;0.00;99.90;;;;;;4846830;29;20841;-60
2023/02/26 00:56:51;;;;;;;3.93;1.00;;;0.00;99.90;;;;;;4861656;29;20502;-60
2023/02/26 00:59:20;;;;;;;3.43;1.03;;;0.10;99.90;;;;;;4862945;29;20964;-60
2023/02/26 01:01:51;;;;;;;2.07;1.10;;;0.10;99.90;;;;;;4862516;29;20558;-59
2023/02/26 01:04:21;;;;;;;1.60;0.90;;;0.00;99.90;;;;;;4858400;29;20476;-59
2023/02/26 01:06:53;;;;;;;2.77;1.10;;;0.00;99.90;;;;;;4844341;29;20484;-60
2023/02/26 01:09:25;;;;;;;2.47;1.33;;;0.00;99.90;;;;;;4843165;29;20485;-59
2023/02/26 01:11:55;;;;;;;2.40;1.00;;;0.00;99.90;;;;;;4844131;29;20592;-60
2023/02/26 01:14:24;;;;;;;3.70;1.20;;;0.00;99.90;;;;;;4842996;29;20985;-59
2023/02/26 01:17:02;;;;;;;2.77;1.10;;;0.10;99.90;;;;;;4843006;29;20479;-60
2023/02/26 01:19:39;;;;;;;4.17;1.00;;;0.00;99.90;;;;;;4844061;29;20471;-59
2023/02/26 01:22:13;;;;;;;2.93;1.07;;;-0.10;99.90;;;;;;4842962;29;20894;-59
2023/02/26 01:24:41;;;;;;;2.97;1.00;;;-0.10;99.90;;;;;;4851700;29;20840;-60
2023/02/26 01:27:10;;;;;;;4.10;1.07;;;-0.10;99.90;;;;;;4862618;29;20503;-60
2023/02/26 01:29:38;;;;;;;3.47;1.00;;;-0.10;99.90;;;;;;4862237;29;20986;-59
2023/02/26 01:32:15;;;;;;;4.57;1.23;;;-0.10;99.90;;;;;;4862043;29;20582;-60
2023/02/26 01:34:51;;;;;;;2.90;0.90;;;-0.20;99.90;;;;;;4853179;29;20481;-59
2023/02/26 01:37:29;;;;;;;2.20;1.10;;;-0.20;99.90;;;;;;4842629;29;20990;-60
2023/02/26 01:40:29;;;;;;;3.50;1.00;;;-0.20;99.90;;;;;;4843834;29;20464;-60
2023/02/26 01:43:06;;;;;;;4.60;1.17;;;-0.10;99.90;;;;;;4843750;29;21053;-60
2023/02/26 01:45:39;;;;;;;1.43;1.07;;;-0.10;99.90;;;;;;4842337;29;20544;-59
2023/02/26 01:48:18;;;;;;;4.70;1.10;;;-0.10;99.90;;;;;;4857521;29;20545;-60
2023/02/26 01:50:46;;;;;;;2.33;1.00;;;0.00;99.90;;;;;;4843303;29;20983;-60
2023/02/26 01:53:21;;;;;;;3.80;1.10;;;0.00;99.90;;;;;;4848495;29;20470;-59
2023/02/26 01:55:54;;;;;;;3.90;1.10;;;0.00;99.90;;;;;;4852375;29;20840;-60
2023/02/26 01:58:23;;;;;;;1.60;1.00;;;0.00;99.90;;;;;;4849639;29;20565;-60
2023/02/26 02:00:52;;;;;;;7.77;1.30;;;0.00;99.90;;;;;;4841924;29;20572;-60
2023/02/26 02:03:22;;;;;;;2.77;0.90;;;0.00;99.90;;;;;;4843475;29;20465;-59
2023/02/26 02:05:54;;;;;;;1.13;0.87;;;0.10;99.90;;;;;;4843231;29;20977;-60
2023/02/26 02:08:22;;;;;;;3.90;1.20;;;0.10;99.90;;;;;;4842107;29;20480;-60
2023/02/26 02:10:52;;;;;;;4.90;1.37;;;0.10;99.90;;;;;;4843398;29;20498;-60
2023/02/26 02:13:35;;;;;;;1.53;0.80;;;0.10;99.90;;;;;;4843129;29;20580;-60
2023/02/26 02:16:12;;;;;;;3.60;1.10;;;0.10;99.90;;;;;;4843462;29;20480;-59
2023/02/26 02:18:52;;;;;;;4.93;1.20;;;0.10;99.90;;;;;;4841653;29;20485;-60
2023/02/26 02:21:48;;;;;;;4.90;1.60;;;0.10;99.90;;;;;;4843138;29;20464;-60
2023/02/26 02:24:24;;;;;;;3.27;1.33;;;0.10;99.90;;;;;;4843426;29;20470;-59
2023/02/26 02:27:09;;;;;;;3.43;1.20;;;0.00;99.90;;;;;;4844277;29;20490;-60
2023/02/26 02:30:15;;;;;;;2.30;1.20;;;0.00;99.90;;;;;;4841531;29;20488;-60
2023/02/26 02:32:49;;;;;;;3.13;1.10;;;0.00;99.90;;;;;;4842493;29;20846;-59
2023/02/26 02:35:21;;;;;;;3.30;1.13;;;0.10;99.90;;;;;;4842993;29;20517;-60
2023/02/26 02:37:58;;;;;;;4.90;1.37;;;0.00;99.90;;;;;;4843168;29;20484;-60
2023/02/26 02:40:30;;;;;;;2.40;1.20;;;0.10;99.90;;;;;;4842826;29;20476;-60
2023/02/26 02:43:02;;;;;;;3.33;1.20;;;0.10;99.90;;;;;;4842756;29;20464;-60
2023/02/26 02:45:35;;;;;;;3.70;1.23;;;0.00;99.90;;;;;;4842797;29;20489;-60
2023/02/26 02:48:10;;;;;;;3.67;1.10;;;0.00;99.90;;;;;;4842884;29;20485;-59
2023/02/26 02:50:43;;;;;;;4.53;1.23;;;-0.10;99.90;;;;;;4842511;29;20991;-60
2023/02/26 02:53:17;;;;;;;3.20;1.20;;;-0.10;99.90;;;;;;4846676;29;20502;-60
2023/02/26 02:55:51;;;;;;;5.70;1.30;;;-0.10;99.90;;;;;;4853109;29;20486;-60
2023/02/26 02:58:24;;;;;;;5.60;1.30;;;-0.20;99.90;;;;;;4842725;29;20477;-61
2023/02/26 03:00:57;;;;;;;2.90;1.10;;;-0.20;99.90;;;;;;4842150;29;20492;-59
2023/02/26 03:03:33;;;;;;;3.17;1.20;;;-0.10;99.90;;;;;;4841094;29;20841;-60
2023/02/26 03:06:02;;;;;;;2.27;1.17;;;-0.10;99.90;;;;;;4837576;29;20465;-60
2023/02/26 03:08:36;;;;;;;2.83;1.00;;;-0.10;99.90;;;;;;4841178;29;20492;-60
2023/02/26 03:11:04;;;;;;;2.50;1.23;;;0.00;99.90;;;;;;4842474;29;20472;-60
2023/02/26 03:13:34;;;;;;;4.43;1.17;;;-0.10;99.90;;;;;;4839392;29;20503;-60
2023/02/26 03:16:29;;;;;;;2.67;1.10;;;-0.20;99.90;;;;;;4843950;29;20532;-59
2023/02/26 03:19:05;;;;;;;4.13;1.33;;;-0.20;99.90;;;;;;4845541;29;20494;-60
2023/02/26 03:21:42;;;;;;;4.67;1.00;;;-0.20;99.90;;;;;;4842797;29;20536;-60
2023/02/26 03:24:16;;;;;;;4.00;1.37;;;-0.10;99.90;;;;;;4854406;29;21037;-59
2023/02/26 03:26:48;;;;;;;3.27;1.10;;;-0.20;99.90;;;;;;4842697;29;20479;-59
2023/02/26 03:29:27;;;;;;;5.27;1.17;;;-0.30;99.90;;;;;;4859157;29;20483;-60
2023/02/26 03:31:59;;;;;;;2.10;0.90;;;-0.30;99.90;;;;;;4860223;29;21038;-60
2023/02/26 03:34:35;;;;;;;1.70;1.00;;;-0.30;99.90;;;;;;4853578;29;20480;-58
2023/02/26 03:37:08;;;;;;;7.60;1.80;;;-0.20;99.90;;;;;;4833425;29;20476;-60
2023/02/26 03:39:40;;;;;;;2.57;1.10;;;-0.40;99.90;;;;;;4841926;29;20985;-59
2023/02/26 03:42:14;;;;;;;2.63;1.07;;;-0.10;99.90;;;;;;4840729;29;20912;-60
2023/02/26 03:44:55;;;;;;;4.03;1.10;;;-0.20;99.90;;;;;;4840760;29;20545;-60
2023/02/26 03:47:25;;;;;;;2.53;1.10;;;-0.20;99.90;;;;;;4840681;29;20894;-60
2023/02/26 03:50:02;;;;;;;2.60;1.20;;;-0.20;99.90;;;;;;4840600;29;20478;-59
2023/02/26 03:52:38;;;;;;;3.53;1.37;;;-0.30;99.90;;;;;;4845782;29;20491;-60
2023/02/26 03:55:21;;;;;;;4.80;1.40;;;-0.50;99.90;;;;;;4842462;29;20539;-59
2023/02/26 03:58:09;;;;;;;2.63;1.00;;;-0.40;99.90;;;;;;4843142;29;20491;-60
2023/02/26 04:01:18;;;;;;;1.57;1.00;;;-0.50;99.90;;;;;;4836683;29;20563;-60
2023/02/26 04:03:53;;;;;;;2.83;1.23;;;-0.50;99.90;;;;;;4834400;29;20852;-59
2023/02/26 04:06:23;;;;;;;4.00;1.07;;;-0.50;99.90;;;;;;4836488;29;20464;-60
2023/02/26 04:08:52;;;;;;;3.57;1.37;;;-0.50;99.90;;;;;;4840534;29;20476;-60
2023/02/26 04:11:21;;;;;;;4.57;1.37;;;-0.60;99.90;;;;;;4843722;29;20510;-59
2023/02/26 04:13:50;;;;;;;7.10;1.30;;;-0.50;99.90;;;;;;4859260;29;20504;-59
2023/02/26 04:16:19;;;;;;;2.57;1.10;;;-0.50;99.90;;;;;;4844154;29;20487;-60
2023/02/26 04:18:47;;;;;;;2.50;1.10;;;-0.60;99.90;;;;;;4845142;29;20464;-60
2023/02/26 04:21:19;;;;;;;7.10;1.20;;;-0.60;99.90;;;;;;4843982;29;20480;-60
2023/02/26 04:23:49;;;;;;;3.07;1.27;;;-0.50;99.90;;;;;;4857294;29;20478;-59
2023/02/26 04:26:17;;;;;;;2.90;1.13;;;-0.60;99.90;;;;;;4856479;29;20475;-60
2023/02/26 04:28:46;;;;;;;2.60;1.27;;;-0.70;99.90;;;;;;4862219;29;20478;-60
2023/02/26 04:31:14;;;;;;;5.73;1.23;;;-0.60;99.90;;;;;;4859319;29;20495;-60
2023/02/26 04:33:43;;;;;;;2.30;0.90;;;-0.60;99.90;;;;;;4843584;29;20557;-59
2023/02/26 04:36:12;;;;;;;3.13;1.07;;;-0.60;99.90;;;;;;4844891;29;20499;-60
2023/02/26 04:38:40;;;;;;;4.47;1.20;;;-0.60;99.90;;;;;;4843447;29;20484;-60
2023/02/26 04:41:10;;;;;;;2.83;1.20;;;-0.70;99.90;;;;;;4843666;29;20476;-59
2023/02/26 04:43:38;;;;;;;2.73;0.93;;;-0.70;99.90;;;;;;4840401;29;20481;-60
2023/02/26 04:46:19;;;;;;;3.93;1.00;;;-0.80;99.90;;;;;;4828979;29;20476;-60
2023/02/26 04:48:48;;;;;;;3.43;1.10;;;-0.70;99.90;;;;;;4851486;29;20474;-59
2023/02/26 04:51:16;;;;;;;1.87;1.20;;;-0.80;99.90;;;;;;4841947;29;20507;-59
2023/02/26 04:53:46;;;;;;;4.57;1.13;;;-0.80;99.90;;;;;;4854913;29;20539;-60
2023/02/26 04:56:16;;;;;;;2.93;0.90;;;-0.80;99.90;;;;;;4851211;29;20482;-60
2023/02/26 04:58:45;;;;;;;4.93;1.13;;;-0.80;99.90;;;;;;4847116;29;20515;-60
2023/02/26 05:01:18;;;;;;;2.20;1.10;;;-0.80;99.90;;;;;;4842345;29;20473;-59
2023/02/26 05:03:46;;;;;;;2.37;1.13;;;-0.80;99.90;;;;;;4833177;29;20528;-60
2023/02/26 05:06:14;;;;;;;3.83;1.40;;;-0.80;99.90;;;;;;4837659;29;20464;-60
2023/02/26 05:08:42;;;;;;;3.90;1.10;;;-0.80;99.90;;;;;;4834295;29;20836;-59
2023/02/26 05:11:11;;;;;;;5.00;1.37;;;-0.80;99.90;;;;;;4833761;29;20516;-59
2023/02/26 05:13:41;;;;;;;3.77;1.03;;;-0.70;99.90;;;;;;4836201;29;20501;-59
2023/02/26 05:16:09;;;;;;;2.53;1.03;;;-0.80;99.90;;;;;;4834715;29;20859;-60
2023/02/26 05:18:37;;;;;;;3.63;1.33;;;-0.80;99.90;;;;;;4862942;29;20568;-60
2023/02/26 05:21:06;;;;;;;4.40;1.10;;;-0.70;99.90;;;;;;4864265;29;20468;-60
2023/02/26 05:23:34;;;;;;;1.80;1.07;;;-0.80;99.90;;;;;;4838036;29;20511;-60
2023/02/26 05:26:02;;;;;;;6.07;1.60;;;-0.80;99.90;;;;;;4842714;29;20829;-60
2023/02/26 05:28:30;;;;;;;4.57;1.00;;;-0.80;99.90;;;;;;4834373;29;20508;-59
2023/02/26 05:31:00;;;;;;;5.17;0.97;;;-0.90;99.90;;;;;;4833338;29;20659;-59
2023/02/26 05:33:28;;;;;;;3.97;1.23;;;-0.70;99.90;;;;;;4848389;29;20485;-59
2023/02/26 05:35:56;;;;;;;5.67;1.00;;;-0.80;99.90;;;;;;4848677;29;20487;-60
2023/02/26 05:38:24;;;;;;;5.03;1.20;;;-0.80;99.90;;;;;;4856348;29;20483;-59
2023/02/26 05:40:56;;;;;;;4.20;1.27;;;-0.80;99.90;;;;;;4853342;29;20483;-60
2023/02/26 05:43:25;;;;;;;1.50;0.93;;;-0.90;99.90;;;;;;4854369;29;20511;-59
2023/02/26 05:45:54;;;;;;;6.03;1.30;;;-1.00;99.90;;;;;;4844844;29;20833;-59
2023/02/26 05:48:24;;;;;;;4.30;1.20;;;-1.00;99.90;;;;;;4851505;29;20476;-60
2023/02/26 05:50:52;;;;;;;4.23;1.07;;;-1.00;99.90;;;;;;4854131;29;20479;-60
2023/02/26 05:53:21;;;;;;;2.53;0.93;;;-1.00;99.90;;;;;;4854831;29;20516;-60
2023/02/26 05:55:49;;;;;;;3.40;1.20;;;-1.00;99.90;;;;;;4854028;29;20499;-60
2023/02/26 05:58:17;;;;;;;4.33;1.20;;;-1.00;99.90;;;;;;4862350;29;20476;-59
2023/02/26 06:00:45;;;;;;;4.50;1.10;;;-1.10;99.90;;;;;;4859527;29;20472;-60
2023/02/26 06:03:14;;;;;;;3.27;1.30;;;-1.10;99.90;;;;;;4835534;29;20535;-60
2023/02/26 06:05:43;;;;;;;1.87;1.10;;;-1.10;99.90;;;;;;4843367;29;20563;-60
2023/02/26 06:08:14;;;;;;;3.70;1.17;;;-1.00;99.90;;;;;;4843448;29;20834;-59
2023/02/26 06:10:43;;;;;;;3.00;1.07;;;-1.10;99.90;;;;;;4843369;29;20536;-60
2023/02/26 06:13:11;;;;;;;3.43;1.20;;;-1.20;99.90;;;;;;4842971;29;20487;-58
2023/02/26 06:15:39;;;;;;;2.23;1.10;;;-1.20;99.90;;;;;;4843137;29;20472;-60
2023/02/26 06:18:08;;;;;;;2.80;1.40;;;-1.30;99.90;;;;;;4843340;29;20486;-60
2023/02/26 06:20:36;;;;;;;3.50;1.47;;;-1.10;99.90;;;;;;4842949;29;20468;-59
2023/02/26 06:23:05;;;;;;;4.30;1.13;;;-1.20;99.90;;;;;;4845928;29;20979;-60
2023/02/26 06:25:34;;;;;;;2.53;1.30;;;-1.20;99.90;;;;;;4853672;29;20835;-60
2023/02/26 06:28:02;;;;;;;4.10;1.23;;;-1.20;99.90;;;;;;4860311;29;20570;-59
2023/02/26 06:30:30;;;;;;;2.90;1.00;;;-1.10;99.90;;;;;;4854806;29;20475;-59
2023/02/26 06:32:58;;;;;;;2.10;1.13;;;-0.90;99.90;;;;;;4860948;29;20479;-60
2023/02/26 06:35:27;;;;;;;2.97;1.30;;;-0.70;99.90;;;;;;4861548;29;20499;-59
2023/02/26 06:37:55;;;;;;;6.33;1.20;;;-0.60;99.90;;;;;;4858595;29;20546;-59
2023/02/26 06:40:24;;;;;;;1.60;1.10;;;-0.80;99.90;;;;;;4842728;29;20488;-60
2023/02/26 06:42:53;;;;;;;2.77;1.00;;;-0.90;99.90;;;;;;4843838;29;20483;-59
2023/02/26 06:45:21;;;;;;;1.93;1.17;;;-1.00;99.90;;;;;;4861295;29;20471;-60
2023/02/26 06:47:49;;;;;;;3.17;0.90;;;-0.90;99.90;;;;;;4861290;29;20995;-60
2023/02/26 06:50:17;;;;;;;4.27;1.20;;;-1.00;99.90;;;;;;4852825;29;20484;-59
2023/02/26 06:52:45;;;;;;;4.50;1.40;;;-1.00;99.90;;;;;;4849518;29;20487;-60
2023/02/26 06:55:13;;;;;;;4.50;1.10;;;-0.90;99.90;;;;;;4849311;29;20870;-59
2023/02/26 06:57:43;;;;;;;3.00;1.50;;;-0.90;99.90;;;;;;4832802;29;20832;-60
2023/02/26 07:00:12;;;;;;;1.93;0.87;;;-0.80;99.90;;;;;;4830982;29;20485;-59
2023/02/26 07:02:40;;;;;;;4.17;1.20;;;-0.50;99.90;;;;;;4832617;29;20476;-60
2023/02/26 07:05:09;;;;;;;2.93;1.00;;;-0.40;99.90;;;;;;4837744;29;20477;-60
2023/02/26 07:07:37;;;;;;;3.70;1.20;;;-0.30;99.90;;;;;;4833581;29;20496;-60
2023/02/26 07:10:06;;;;;;;2.20;1.00;;;-0.40;99.90;;;;;;4832430;29;21008;-59
2023/02/26 07:12:34;;;;;;;3.73;1.40;;;-0.30;99.90;;;;;;4832344;29;20476;-60
2023/02/26 07:15:05;;;;;;;1.90;1.10;;;-0.30;99.90;;;;;;4833592;29;20496;-59
2023/02/26 07:17:33;;;;;;;3.63;1.07;;;-0.20;99.90;;;;;;4832787;29;20835;-60
2023/02/26 07:20:05;;;;;;;4.63;1.27;;;-0.20;99.90;;;;;;4834696;29;20969;-60
2023/02/26 07:22:33;;;;;;;2.43;1.10;;;-0.20;99.90;;;;;;4841901;29;20571;-60
2023/02/26 07:25:01;;;;;;;2.60;1.00;;;-0.20;99.90;;;;;;4853123;29;20476;-60
2023/02/26 07:27:29;;;;;;;3.40;0.90;;;-0.10;99.90;;;;;;4860653;29;20468;-60
2023/02/26 07:29:57;;;;;;;2.50;1.00;;;0.00;99.90;;;;;;4859448;29;20479;-60
2023/02/26 07:32:27;;;;;;;1.70;0.90;;;0.10;99.90;;;;;;4851526;29;21000;-59
2023/02/26 07:34:55;;;;;;;2.40;1.20;;;0.20;99.90;;;;;;4858797;29;20499;-60
2023/02/26 07:37:24;;;;;;;3.03;1.00;;;0.30;99.90;;;;;;4825381;29;21001;-60
2023/02/26 07:39:52;;;;;;;3.90;1.03;;;0.40;99.90;;;;;;4825871;29;20488;-59
2023/02/26 07:42:21;;;;;;;4.10;1.20;;;0.50;99.90;;;;;;4835105;29;20476;-60
2023/02/26 07:44:49;;;;;;;4.33;1.33;;;0.50;99.90;;;;;;4844389;29;20630;-60
2023/02/26 07:47:17;;;;;;;1.67;1.03;;;0.70;99.90;;;;;;4848315;29;20975;-59
2023/02/26 07:49:47;;;;;;;2.27;1.07;;;0.80;99.90;;;;;;4845905;29;21064;-59
2023/02/26 07:52:16;;;;;;;2.77;1.37;;;0.90;99.90;;;;;;4851036;29;20996;-60
2023/02/26 07:54:44;;;;;;;1.70;1.20;;;0.90;99.90;;;;;;4866115;29;20499;-59
2023/02/26 07:57:12;;;;;;;1.83;1.00;;;1.10;99.90;;;;;;4866436;29;20478;-60
2023/02/26 07:59:40;;;;;;;3.30;1.20;;;1.20;99.90;;;;;;4858452;29;20972;-59
2023/02/26 08:02:08;;;;;;;1.90;1.27;;;1.20;99.90;;;;;;4843991;29;20489;-60
2023/02/26 08:04:36;;;;;;;2.63;1.33;;;1.30;99.90;;;;;;4837063;29;20495;-60
2023/02/26 08:07:06;;;;;;;2.20;1.03;;;1.40;99.90;;;;;;4855826;29;20889;-60
2023/02/26 08:09:34;;;;;;;4.70;1.50;;;1.50;99.90;;;;;;4848093;29;20469;-60
2023/02/26 08:12:04;;;;;;;2.40;1.20;;;1.60;99.90;;;;;;4848815;29;21047;-60
2023/02/26 08:14:32;;;;;;;2.70;1.10;;;1.70;99.90;;;;;;4848806;29;20592;-59
2023/02/26 08:17:00;;;;;;;4.23;1.40;;;1.70;99.90;;;;;;4849065;29;20878;-60
2023/02/26 08:19:29;;;;;;;2.37;1.30;;;1.70;99.90;;;;;;4848738;29;20507;-60
2023/02/26 08:21:57;;;;;;;3.40;1.30;;;1.90;99.90;;;;;;4858565;29;20932;-59
2023/02/26 08:24:26;;;;;;;4.07;1.43;;;1.90;99.90;;;;;;4860258;29;20477;-59
2023/02/26 08:26:55;;;;;;;1.90;1.20;;;2.00;99.90;;;;;;4865725;29;20479;-60
2023/02/26 08:29:24;;;;;;;3.83;1.40;;;2.20;99.90;;;;;;4860131;29;20479;-60
2023/02/26 08:31:52;;;;;;;3.50;1.47;;;2.40;99.90;;;;;;4844490;29;20491;-60
2023/02/26 08:34:24;;;;;;;5.20;1.50;;;2.50;99.90;;;;;;4848943;29;20961;-58
2023/02/26 08:36:56;;;;;;;1.80;1.00;;;2.50;99.90;;;;;;4842728;29;20477;-60
2023/02/26 08:39:24;;;;;;;4.63;1.37;;;2.60;99.90;;;;;;4865859;29;20973;-58
2023/02/26 08:41:53;;;;;;;2.80;1.20;;;2.80;99.90;;;;;;4839679;29;20479;-58
2023/02/26 08:44:21;;;;;;;3.77;1.47;;;2.90;99.90;;;;;;4840268;29;20482;-58
2023/02/26 08:46:49;;;;;;;3.40;1.50;;;3.00;99.90;;;;;;4842636;29;20512;-58
2023/02/26 08:49:17;;;;;;;3.50;1.27;;;3.10;99.90;;;;;;4847629;29;20469;-58
2023/02/26 08:51:45;;;;;;;4.43;1.60;;;3.20;99.90;;;;;;4855233;29;20493;-58
2023/02/26 08:54:14;;;;;;;4.17;1.53;;;3.30;99.90;;;;;;4860880;29;20867;-58
2023/02/26 08:56:42;;;;;;;2.50;1.43;;;3.50;99.90;;;;;;4852404;29;20493;-58
2023/02/26 08:59:12;;;;;;;3.00;1.57;;;3.50;99.90;;;;;;4833121;29;20471;-58
2023/02/26 09:01:40;;;;;;;5.30;1.50;;;3.70;99.90;;;;;;4842636;29;20836;-58
2023/02/26 09:04:08;;;;;;;4.33;1.30;;;4.10;99.90;;;;;;4839027;29;20832;-58
2023/02/26 09:06:36;;;;;;;3.27;1.10;;;4.30;99.90;;;;;;4835279;29;20477;-58
2023/02/26 09:09:04;;;;;;;2.53;1.50;;;4.00;99.90;;;;;;4835741;29;20477;-58
2023/02/26 09:11:35;;;;;;;3.23;1.30;;;3.80;99.90;;;;;;4839817;29;20470;-58
2023/02/26 09:14:06;;;;;;;4.20;1.30;;;3.70;99.90;;;;;;4822199;29;20911;-59
2023/02/26 09:16:38;;;;;;;2.77;1.17;;;3.50;99.90;;;;;;4836854;29;20496;-58
2023/02/26 09:19:10;;;;;;;3.10;1.20;;;3.30;99.90;;;;;;4820516;29;20472;-58
2023/02/26 09:21:40;;;;;;;4.33;1.30;;;3.50;99.90;;;;;;4824351;29;20554;-58
2023/02/26 09:24:10;;;;;;;2.67;1.43;;;3.60;99.90;;;;;;4844560;29;20490;-58
2023/02/26 09:26:41;;;;;;;1.70;1.00;;;3.80;99.90;;;;;;4837746;29;20589;-58
2023/02/26 09:29:12;;;;;;;2.57;0.93;;;4.20;99.90;;;;;;4820734;29;21009;-58
2023/02/26 09:31:45;;;;;;;1.90;0.80;;;4.30;99.90;;;;;;4836614;29;20580;-59
2023/02/26 09:34:19;;;;;;;3.43;1.00;;;4.00;99.90;;;;;;4838707;29;20471;-58
2023/02/26 09:36:48;;;;;;;3.50;1.33;;;3.90;99.90;;;;;;4843809;29;20856;-58
2023/02/26 09:39:16;;;;;;;2.53;1.00;;;3.70;99.90;;;;;;4844223;29;20835;-58
2023/02/26 09:41:49;;;;;;;2.33;0.70;;;3.50;99.90;;;;;;4837479;29;20481;-58
2023/02/26 09:44:21;;;;;;;4.93;0.90;;;3.60;99.90;;;;;;4852623;29;20478;-58
2023/02/26 09:46:58;;;;;;;2.67;0.77;;;4.20;99.90;;;;;;4838250;29;20487;-58
2023/02/26 09:49:36;;;;;;;1.83;0.77;;;4.50;99.90;;;;;;4838623;29;20480;-57
2023/02/26 09:52:12;;;;;;;1.73;1.03;;;4.80;99.90;;;;;;4840459;29;20549;-58
2023/02/26 09:54:45;;;;;;;1.60;1.00;;;5.00;99.90;;;;;;4842759;29;20995;-58
2023/02/26 09:57:25;;;;;;;2.40;0.97;;;5.10;99.90;;;;;;4836550;29;20499;-58
2023/02/26 09:59:53;;;;;;;4.70;1.07;;;5.20;99.90;;;;;;4835618;29;20480;-58
2023/02/26 10:02:33;;;;;;;3.50;1.37;;;5.60;99.90;;;;;;4826663;29;20480;-58
2023/02/26 10:05:17;;;;;;;3.53;0.90;;;5.80;99.90;;;;;;4825237;29;20496;-58
2023/02/26 10:07:50;;;;;;;3.17;1.10;;;6.00;99.90;;;;;;4824562;29;20488;-59
2023/02/26 10:10:26;;;;;;;4.00;1.17;;;6.20;99.90;;;;;;4846879;29;20479;-59
2023/02/26 10:12:54;;;;;;;3.47;1.13;;;6.30;99.90;;;;;;4849773;29;20498;-59
2023/02/26 10:15:25;;;;;;;1.53;0.63;;;6.50;99.90;;;;;;4843480;29;20247;-58
2023/02/26 10:18:16;;;;;;;1.87;0.80;;;6.30;99.90;;;;;;4843262;29;20253;-58
2023/02/26 10:20:54;;;;;;;4.10;1.00;;;6.30;99.90;;;;;;4850754;29;20699;-58
2023/02/26 10:23:26;;;;;;;3.80;1.37;;;6.20;99.90;;;;;;4842899;29;20282;-58
2023/02/26 10:26:01;;;;;;;1.60;0.60;;;6.10;99.90;;;;;;4838395;29;20231;-58
2023/02/26 10:28:44;;;;;;;1.97;0.80;;;6.00;99.90;;;;;;4835273;29;20905;-58
2023/02/26 10:31:22;;;;;;;1.23;0.73;;;5.70;99.90;;;;;;4833222;29;20239;-58
2023/02/26 10:34:07;;;;;;;2.50;0.90;;;5.50;99.90;;;;;;4837134;29;20226;-58
2023/02/26 10:36:44;;;;;;;2.37;0.80;;;5.80;99.90;;;;;;4833471;29;20499;-58
2023/02/26 10:39:24;;;;;;;2.80;1.00;;;5.70;99.90;;;;;;4835027;29;20226;-58
2023/02/26 10:41:52;;;;;;;1.67;0.80;;;5.70;99.90;;;;;;4838629;29;20314;-58
2023/02/26 10:44:30;;;;;;;2.80;0.87;;;5.50;99.90;;;;;;4833687;29;20564;-58
2023/02/26 10:47:05;;;;;;;2.57;1.00;;;5.20;99.90;;;;;;4833627;29;20494;-58
2023/02/26 10:49:53;;;;;;;4.00;0.90;;;5.10;99.90;;;;;;4833334;29;20476;-58
2023/02/26 10:52:26;;;;;;;3.10;0.67;;;5.00;99.90;;;;;;4840269;29;20482;-59
2023/02/26 10:55:06;;;;;;;3.10;0.77;;;5.00;99.90;;;;;;4837145;29;20490;-59
2023/02/26 10:57:38;;;;;;;1.77;0.70;;;5.00;99.90;;;;;;4835895;29;20247;-58
2023/02/26 11:00:14;;;;;;;2.37;0.83;;;4.90;99.90;;;;;;4832155;29;20991;-59
2023/02/26 11:02:46;;;;;;;1.90;0.60;;;4.90;99.90;;;;;;4832510;29;20238;-59
2023/02/26 11:05:18;;;;;;;1.77;0.70;;;4.90;99.90;;;;;;4839888;29;20266;-59
2023/02/26 11:07:50;;;;;;;2.20;1.13;;;5.00;99.90;;;;;;4835480;29;20231;-59
2023/02/26 11:10:23;;;;;;;2.10;0.80;;;4.80;99.90;;;;;;4836138;29;20469;-58
2023/02/26 11:12:51;;;;;;;2.60;1.13;;;4.70;99.90;;;;;;4831942;29;20489;-59
2023/02/26 11:15:21;;;;;;;4.17;1.10;;;4.70;99.90;;;;;;4832986;29;21008;-59
2023/02/26 11:17:55;;;;;;;3.50;1.10;;;4.70;99.90;;;;;;4834088;29;20307;-59
2023/02/26 11:20:31;;;;;;;3.57;1.27;;;4.70;99.90;;;;;;4838752;29;20242;-58
2023/02/26 11:23:01;;;;;;;3.47;0.80;;;4.70;99.90;;;;;;4841531;29;20521;-59
2023/02/26 11:25:32;;;;;;;3.00;1.13;;;4.80;99.90;;;;;;4835895;29;20473;-58
2023/02/26 11:28:05;;;;;;;5.03;1.40;;;4.80;99.90;;;;;;4836429;29;20254;-59
2023/02/26 11:30:38;;;;;;;1.90;1.00;;;4.90;99.90;;;;;;4841897;29;20475;-59
2023/02/26 11:33:27;;;;;;;3.87;1.10;;;4.90;99.90;;;;;;4842123;29;20837;-59
2023/02/26 11:36:02;;;;;;;2.07;1.10;;;4.90;99.90;;;;;;4851130;29;21077;-59
2023/02/26 11:38:32;;;;;;;2.97;1.13;;;4.80;99.90;;;;;;4845156;29;20486;-59
2023/02/26 11:41:02;;;;;;;2.60;1.03;;;4.80;99.90;;;;;;4841215;29;20232;-59
2023/02/26 11:43:37;;;;;;;3.20;1.00;;;4.80;99.90;;;;;;4841973;29;20471;-59
2023/02/26 11:46:05;;;;;;;2.33;0.90;;;4.90;99.90;;;;;;4836443;29;20490;-59
2023/02/26 11:48:40;;;;;;;1.60;1.00;;;5.00;99.90;;;;;;4841642;29;20476;-58
2023/02/26 11:51:15;;;;;;;2.20;0.70;;;5.10;99.90;;;;;;4849709;29;20479;-58
2023/02/26 11:53:49;;;;;;;2.20;0.87;;;5.30;99.90;;;;;;4839061;29;20256;-59
2023/02/26 11:56:26;;;;;;;2.60;0.90;;;5.20;99.90;;;;;;4847136;29;20231;-58
2023/02/26 11:58:55;;;;;;;1.67;0.60;;;5.10;99.90;;;;;;4842977;29;20834;-59
2023/02/26 12:01:29;;;;;;;2.93;0.87;;;5.00;99.90;;;;;;4835754;29;20239;-59
2023/02/26 12:04:08;;;;;;;2.10;0.70;;;4.90;99.90;;;;;;4859295;29;20569;-59
2023/02/26 12:06:38;;;;;;;2.03;0.87;;;4.90;99.90;;;;;;4862815;29;20835;-59
2023/02/26 12:09:11;;;;;;;2.53;0.63;;;5.10;99.90;;;;;;4860248;29;20472;-59
2023/02/26 12:12:06;;;;;;;1.57;0.70;;;5.20;99.90;;;;;;4845191;29;20998;-59
2023/02/26 12:15:03;;;;;;;2.50;0.70;;;5.10;99.90;;;;;;4841747;29;20696;-59
2023/02/26 12:17:42;;;;;;;2.90;0.70;;;4.90;99.90;;;;;;4841707;29;20254;-59
2023/02/26 12:20:20;;;;;;;1.70;0.63;;;4.90;99.90;;;;;;4846034;29;20550;-59
2023/02/26 12:23:06;;;;;;;2.80;0.70;;;4.80;99.90;;;;;;4846189;29;20464;-59
2023/02/26 12:25:49;;;;;;;1.40;0.80;;;4.80;99.90;;;;;;4847217;29;20463;-59
2023/02/26 12:28:40;;;;;;;1.37;0.93;;;4.80;99.90;;;;;;4841757;29;20972;-59
2023/02/26 12:31:44;;;;;;;1.13;0.80;;;4.90;99.90;;;;;;4852338;29;20242;-59
2023/02/26 12:34:28;;;;;;;3.90;1.07;;;5.10;99.90;;;;;;4826842;29;20471;-59
2023/02/26 12:37:13;;;;;;;4.50;1.00;;;5.10;99.90;;;;;;4842581;29;20494;-59
2023/02/26 12:39:55;;;;;;;3.33;0.70;;;5.10;99.90;;;;;;4848735;29;20536;-59
2023/02/26 12:42:37;;;;;;;3.17;1.17;;;5.20;99.90;;;;;;4855544;29;20475;-59
2023/02/26 12:45:24;;;;;;;2.17;0.80;;;5.10;99.90;;;;;;4850148;29;20246;-59
2023/02/26 12:48:07;;;;;;;2.87;0.93;;;5.10;99.90;;;;;;4842388;29;21025;-59
2023/02/26 12:50:44;;;;;;;3.43;1.33;;;5.10;99.90;;;;;;4836777;29;20477;-59
2023/02/26 12:53:32;;;;;;;3.40;0.83;;;5.00;99.90;;;;;;4845445;29;20237;-59
2023/02/26 12:56:26;;;;;;;3.87;1.10;;;5.00;99.90;;;;;;4849041;29;20841;-59
2023/02/26 12:59:05;;;;;;;1.27;0.80;;;5.10;99.90;;;;;;4836900;29;21008;-58
2023/02/26 13:01:58;;;;;;;2.97;1.20;;;5.20;99.90;;;;;;4828202;29;20253;-59
2023/02/26 13:04:56;;;;;;;3.87;1.10;;;5.20;99.90;;;;;;4838648;29;21019;-59
2023/02/26 13:08:03;;;;;;;1.37;0.80;;;5.20;99.90;;;;;;4847435;29;20886;-58
2023/02/26 13:10:44;;;;;;;3.93;1.20;;;5.20;99.90;;;;;;4796998;29;20243;-59
2023/02/26 13:13:27;;;;;;;2.53;0.80;;;5.20;99.90;;;;;;4840589;29;21000;-59
2023/02/26 13:16:10;;;;;;;2.20;1.00;;;5.20;99.90;;;;;;4845069;29;20580;-59
2023/02/26 13:18:48;;;;;;;3.17;1.17;;;5.10;99.90;;;;;;4844151;29;20552;-59
2023/02/26 13:21:21;;;;;;;2.93;1.03;;;5.20;99.90;;;;;;4851701;29;20479;-59
2023/02/26 13:23:52;;;;;;;3.10;0.90;;;5.20;99.90;;;;;;4853348;29;20475;-59